sensor_id;sensor_type;location;lat;lon;timestamp;pressure;altitude;pressure_sealevel;temperature;humidity
14885;BME280;7534;50.762;7.000;2022-07-06T00:01:42;150651.38;;;17.16;61.92
14885;BME280;7534;50.762;7.000;2022-07-06T00:04:07;150642.16;;;17.12;61.38
14885;BME280;7534;50.762;7.000;2022-07-06T00:06:33;150647.44;;;17.14;61.38
14885;BME280;7534;50.762;7.000;2022-07-06T00:08:59;150630.34;;;17.08;61.64
14885;BME280;7534;50.762;7.000;2022-07-06T00:11:25;150635.59;;;17.10;61.14
14885;BME280;7534;50.762;7.000;2022-07-06T00:13:51;150614.56;;;17.02;61.14
14885;BME280;7534;50.762;7.000;2022-07-06T00:16:18;150600.03;;;16.96;60.87
14885;BME280;7534;50.762;7.000;2022-07-06T00:18:45;150571.13;;;16.85;60.66
14885;BME280;7534;50.762;7.000;2022-07-06T00:21:11;150523.75;;;16.67;61.17
14885;BME280;7534;50.762;7.000;2022-07-06T00:23:36;150510.63;;;16.62;61.43
14885;BME280;7534;50.762;7.000;2022-07-06T00:26:02;150501.34;;;16.58;61.58
14885;BME280;7534;50.762;7.000;2022-07-06T00:28:28;150478.97;;;16.50;61.78
14885;BME280;7534;50.762;7.000;2022-07-06T00:30:54;150457.94;;;16.41;62.23
14885;BME280;7534;50.762;7.000;2022-07-06T00:33:21;150426.41;;;16.29;62.67
14885;BME280;7534;50.762;7.000;2022-07-06T00:35:47;150410.56;;;16.23;62.95
14885;BME280;7534;50.762;7.000;2022-07-06T00:38:13;150373.78;;;16.09;63.49
14885;BME280;7534;50.762;7.000;2022-07-06T00:40:38;150381.69;;;16.12;63.37
14885;BME280;7534;50.762;7.000;2022-07-06T00:43:04;150365.88;;;16.06;63.20
14885;BME280;7534;50.762;7.000;2022-07-06T00:45:30;150343.50;;;15.97;63.31
14885;BME280;7534;50.762;7.000;2022-07-06T00:47:56;150329.06;;;15.92;63.59
14885;BME280;7534;50.762;7.000;2022-07-06T00:50:22;150313.31;;;15.86;64.23
14885;BME280;7534;50.762;7.000;2022-07-06T00:52:53;150302.75;;;15.82;64.25
14885;BME280;7534;50.762;7.000;2022-07-06T00:55:32;150259.38;;;15.65;64.78
14885;BME280;7534;50.762;7.000;2022-07-06T00:58:01;150239.66;;;15.57;65.00
14885;BME280;7534;50.762;7.000;2022-07-06T01:00:29;150218.59;;;15.49;65.41
14885;BME280;7534;50.762;7.000;2022-07-06T01:02:55;150218.59;;;15.49;65.32
14885;BME280;7534;50.762;7.000;2022-07-06T01:05:21;150212.06;;;15.47;65.53
14885;BME280;7534;50.762;7.000;2022-07-06T01:07:51;150166.03;;;15.29;65.91
14885;BME280;7534;50.762;7.000;2022-07-06T01:10:20;150176.53;;;15.33;65.78
14885;BME280;7534;50.762;7.000;2022-07-06T01:12:47;150167.38;;;15.30;65.70
14885;BME280;7534;50.762;7.000;2022-07-06T01:15:19;150135.81;;;15.17;65.67
14885;BME280;7534;50.762;7.000;2022-07-06T01:17:45;150122.69;;;15.12;65.61
14885;BME280;7534;50.762;7.000;2022-07-06T01:20:19;150102.97;;;15.05;66.01
14885;BME280;7534;50.762;7.000;2022-07-06T01:22:49;150081.97;;;14.97;66.17
14885;BME280;7534;50.762;7.000;2022-07-06T01:25:16;150083.28;;;14.97;66.50
14885;BME280;7534;50.762;7.000;2022-07-06T01:27:43;150053.06;;;14.85;66.61
14885;BME280;7534;50.762;7.000;2022-07-06T01:30:15;150018.91;;;14.72;67.01
14885;BME280;7534;50.762;7.000;2022-07-06T01:32:41;150058.31;;;14.87;66.86
14885;BME280;7534;50.762;7.000;2022-07-06T01:35:10;150071.44;;;14.93;66.74
14885;BME280;7534;50.762;7.000;2022-07-06T01:37:37;150067.53;;;14.91;66.42
14885;BME280;7534;50.762;7.000;2022-07-06T01:40:08;150075.38;;;14.94;66.29
14885;BME280;7534;50.762;7.000;2022-07-06T01:42:35;150072.75;;;14.93;66.23
14885;BME280;7534;50.762;7.000;2022-07-06T01:45:01;150066.22;;;14.91;66.12
14885;BME280;7534;50.762;7.000;2022-07-06T01:47:27;150062.28;;;14.89;66.63
14885;BME280;7534;50.762;7.000;2022-07-06T01:49:53;150058.31;;;14.87;66.43
14885;BME280;7534;50.762;7.000;2022-07-06T01:52:19;150026.81;;;14.75;66.66
14885;BME280;7534;50.762;7.000;2022-07-06T01:54:45;150039.94;;;14.80;66.96
14885;BME280;7534;50.762;7.000;2022-07-06T01:57:10;150035.97;;;14.79;66.78
14885;BME280;7534;50.762;7.000;2022-07-06T01:59:36;150045.19;;;14.82;66.92
14885;BME280;7534;50.762;7.000;2022-07-06T02:02:02;150046.50;;;14.83;67.14
14885;BME280;7534;50.762;7.000;2022-07-06T02:04:28;150063.59;;;14.89;66.82
14885;BME280;7534;50.762;7.000;2022-07-06T02:06:53;150071.44;;;14.93;66.73
14885;BME280;7534;50.762;7.000;2022-07-06T02:09:19;150058.31;;;14.87;66.44
14885;BME280;7534;50.762;7.000;2022-07-06T02:11:45;150025.50;;;14.75;66.95
14885;BME280;7534;50.762;7.000;2022-07-06T02:14:11;150030.72;;;14.77;66.71
14885;BME280;7534;50.762;7.000;2022-07-06T02:16:36;149963.78;;;14.51;66.77
14885;BME280;7534;50.762;7.000;2022-07-06T02:19:03;149995.28;;;14.63;67.00
14885;BME280;7534;50.762;7.000;2022-07-06T02:21:28;149976.91;;;14.56;67.36
14885;BME280;7534;50.762;7.000;2022-07-06T02:23:54;149990.00;;;14.61;67.58
14885;BME280;7534;50.762;7.000;2022-07-06T02:26:20;149979.53;;;14.57;67.49
14885;BME280;7534;50.762;7.000;2022-07-06T02:28:46;149969.00;;;14.53;67.61
14885;BME280;7534;50.762;7.000;2022-07-06T02:31:14;149980.84;;;14.58;67.71
14885;BME280;7534;50.762;7.000;2022-07-06T02:33:41;149974.25;;;14.55;67.73
14885;BME280;7534;50.762;7.000;2022-07-06T02:36:07;149948.00;;;14.45;67.88
14885;BME280;7534;50.762;7.000;2022-07-06T02:38:33;149987.38;;;14.60;67.89
14885;BME280;7534;50.762;7.000;2022-07-06T02:40:59;150000.53;;;14.65;67.79
14885;BME280;7534;50.762;7.000;2022-07-06T02:43:25;149882.28;;;14.20;67.57
14885;BME280;7534;50.762;7.000;2022-07-06T02:45:50;149948.00;;;14.45;67.95
14885;BME280;7534;50.762;7.000;2022-07-06T02:48:16;149940.16;;;14.42;67.71
14885;BME280;7534;50.762;7.000;2022-07-06T02:50:43;149946.69;;;14.44;68.04
14885;BME280;7534;50.762;7.000;2022-07-06T02:53:09;149924.28;;;14.36;68.49
14885;BME280;7534;50.762;7.000;2022-07-06T02:55:34;149879.72;;;14.19;68.15
14885;BME280;7534;50.762;7.000;2022-07-06T02:58:00;149909.88;;;14.30;68.25
14885;BME280;7534;50.762;7.000;2022-07-06T03:00:26;149890.19;;;14.23;68.51
14885;BME280;7534;50.762;7.000;2022-07-06T03:02:52;149859.97;;;14.11;68.38
14885;BME280;7534;50.762;7.000;2022-07-06T03:05:17;149858.69;;;14.10;68.89
14885;BME280;7534;50.762;7.000;2022-07-06T03:07:43;149846.84;;;14.06;68.76
14885;BME280;7534;50.762;7.000;2022-07-06T03:10:09;149824.53;;;13.97;69.55
14885;BME280;7534;50.762;7.000;2022-07-06T03:12:35;149790.44;;;13.84;69.58
14885;BME280;7534;50.762;7.000;2022-07-06T03:15:03;149812.75;;;13.93;70.08
14885;BME280;7534;50.762;7.000;2022-07-06T03:17:29;149766.81;;;13.75;70.17
14885;BME280;7534;50.762;7.000;2022-07-06T03:19:55;149766.81;;;13.75;70.28
14885;BME280;7534;50.762;7.000;2022-07-06T03:22:21;149766.81;;;13.75;70.33
14885;BME280;7534;50.762;7.000;2022-07-06T03:24:46;149769.44;;;13.76;70.50
14885;BME280;7534;50.762;7.000;2022-07-06T03:27:12;149748.44;;;13.68;70.66
14885;BME280;7534;50.762;7.000;2022-07-06T03:29:38;149730.09;;;13.61;70.93
14885;BME280;7534;50.762;7.000;2022-07-06T03:32:04;149724.81;;;13.59;70.86
14885;BME280;7534;50.762;7.000;2022-07-06T03:34:32;149758.91;;;13.72;70.55
14885;BME280;7534;50.762;7.000;2022-07-06T03:36:58;149747.13;;;13.67;71.01
14885;BME280;7534;50.762;7.000;2022-07-06T03:39:24;149743.19;;;13.66;70.88
14885;BME280;7534;50.762;7.000;2022-07-06T03:41:50;149695.94;;;13.48;70.81
14885;BME280;7534;50.762;7.000;2022-07-06T03:44:16;149692.00;;;13.46;71.06
14885;BME280;7534;50.762;7.000;2022-07-06T03:46:41;149693.31;;;13.47;71.55
14885;BME280;7534;50.762;7.000;2022-07-06T03:49:07;149686.78;;;13.44;71.68
14885;BME280;7534;50.762;7.000;2022-07-06T03:51:33;149672.31;;;13.38;71.90
14885;BME280;7534;50.762;7.000;2022-07-06T03:53:59;149661.84;;;13.34;71.98
14885;BME280;7534;50.762;7.000;2022-07-06T03:56:24;149648.75;;;13.29;71.87
14885;BME280;7534;50.762;7.000;2022-07-06T03:58:54;149693.31;;;13.47;71.32
14885;BME280;7534;50.762;7.000;2022-07-06T04:01:23;149711.72;;;13.54;71.41
14885;BME280;7534;50.762;7.000;2022-07-06T04:03:48;149661.84;;;13.34;71.62
14885;BME280;7534;50.762;7.000;2022-07-06T04:06:14;149720.88;;;13.57;71.43
14885;BME280;7534;50.762;7.000;2022-07-06T04:08:40;149744.50;;;13.66;71.23
14885;BME280;7534;50.762;7.000;2022-07-06T04:11:06;149777.28;;;13.79;70.79
14885;BME280;7534;50.762;7.000;2022-07-06T04:13:32;149749.75;;;13.68;70.71
14885;BME280;7534;50.762;7.000;2022-07-06T04:15:58;149808.81;;;13.91;70.79
14885;BME280;7534;50.762;7.000;2022-07-06T04:18:23;149833.75;;;14.01;70.79
14885;BME280;7534;50.762;7.000;2022-07-06T04:20:49;149866.53;;;14.13;70.28
14885;BME280;7534;50.762;7.000;2022-07-06T04:23:16;149873.13;;;14.16;69.97
14885;BME280;7534;50.762;7.000;2022-07-06T04:25:41;149903.28;;;14.28;69.58
14885;BME280;7534;50.762;7.000;2022-07-06T04:28:07;149936.19;;;14.40;69.39
14885;BME280;7534;50.762;7.000;2022-07-06T04:30:33;149928.25;;;14.37;69.37
14885;BME280;7534;50.762;7.000;2022-07-06T04:32:59;149940.16;;;14.42;69.36
14885;BME280;7534;50.762;7.000;2022-07-06T04:35:25;149999.22;;;14.65;68.63
14885;BME280;7534;50.762;7.000;2022-07-06T04:37:51;149966.38;;;14.52;68.23
14885;BME280;7534;50.762;7.000;2022-07-06T04:40:18;150029.41;;;14.76;68.44
14885;BME280;7534;50.762;7.000;2022-07-06T04:42:44;150151.63;;;15.23;67.66
14885;BME280;7534;50.762;7.000;2022-07-06T04:45:10;150237.09;;;15.56;66.17
14885;BME280;7534;50.762;7.000;2022-07-06T04:47:36;150313.31;;;15.86;65.04
14885;BME280;7534;50.762;7.000;2022-07-06T04:50:03;150331.69;;;15.93;63.61
14885;BME280;7534;50.762;7.000;2022-07-06T04:52:29;150350.09;;;16.00;64.08
14885;BME280;7534;50.762;7.000;2022-07-06T04:54:55;150334.34;;;15.94;64.14
14885;BME280;7534;50.762;7.000;2022-07-06T04:57:21;150367.19;;;16.07;63.81
14885;BME280;7534;50.762;7.000;2022-07-06T04:59:47;150423.75;;;16.28;63.10
14885;BME280;7534;50.762;7.000;2022-07-06T05:02:13;150493.44;;;16.55;61.96
14885;BME280;7534;50.762;7.000;2022-07-06T05:04:38;150529.03;;;16.69;61.28
14885;BME280;7534;50.762;7.000;2022-07-06T05:07:04;150546.13;;;16.75;60.66
14885;BME280;7534;50.762;7.000;2022-07-06T05:09:30;150554.00;;;16.78;61.20
14885;BME280;7534;50.762;7.000;2022-07-06T05:11:56;150604.00;;;16.98;60.68
14885;BME280;7534;50.762;7.000;2022-07-06T05:14:22;150631.66;;;17.08;60.27
14885;BME280;7534;50.762;7.000;2022-07-06T05:16:47;150690.88;;;17.31;58.84
14885;BME280;7534;50.762;7.000;2022-07-06T05:19:13;150798.88;;;17.73;57.87
14885;BME280;7534;50.762;7.000;2022-07-06T05:21:39;150855.47;;;17.95;56.43
14885;BME280;7534;50.762;7.000;2022-07-06T05:24:04;151036.00;;;18.64;53.91
14885;BME280;7534;50.762;7.000;2022-07-06T05:26:30;151450.03;;;20.23;51.18
14885;BME280;7534;50.762;7.000;2022-07-06T05:28:56;151765.56;;;21.44;46.62
14885;BME280;7534;50.762;7.000;2022-07-06T05:31:21;151937.34;;;22.10;44.67
14885;BME280;7534;50.762;7.000;2022-07-06T05:33:47;152238.75;;;23.26;41.57
14885;BME280;7534;50.762;7.000;2022-07-06T05:36:13;152514.00;;;24.31;39.65
14885;BME280;7534;50.762;7.000;2022-07-06T05:38:39;152490.19;;;24.22;39.14
14885;BME280;7534;50.762;7.000;2022-07-06T05:41:04;152255.94;;;23.32;41.11
14885;BME280;7534;50.762;7.000;2022-07-06T05:43:30;151970.34;;;22.23;42.89
14885;BME280;7534;50.762;7.000;2022-07-06T05:45:56;151725.97;;;21.29;45.24
14885;BME280;7534;50.762;7.000;2022-07-06T05:48:21;151523.94;;;20.51;47.40
14885;BME280;7534;50.762;7.000;2022-07-06T05:51:06;151339.22;;;19.80;50.10
14885;BME280;7534;50.762;7.000;2022-07-06T05:53:31;151295.69;;;19.64;50.74
14885;BME280;7534;50.762;7.000;2022-07-06T05:55:57;151237.63;;;19.41;51.71
14885;BME280;7534;50.762;7.000;2022-07-06T05:58:23;151216.53;;;19.33;51.91
14885;BME280;7534;50.762;7.000;2022-07-06T06:00:50;151237.63;;;19.41;52.21
14885;BME280;7534;50.762;7.000;2022-07-06T06:03:17;151175.69;;;19.18;52.50
14885;BME280;7534;50.762;7.000;2022-07-06T06:05:42;151137.47;;;19.03;53.88
14885;BME280;7534;50.762;7.000;2022-07-06T06:08:08;151132.19;;;19.01;54.00
14885;BME280;7534;50.762;7.000;2022-07-06T06:10:34;151075.53;;;18.79;54.71
14885;BME280;7534;50.762;7.000;2022-07-06T06:13:00;151082.09;;;18.82;54.51
14885;BME280;7534;50.762;7.000;2022-07-06T06:15:26;151088.69;;;18.84;54.11
14885;BME280;7534;50.762;7.000;2022-07-06T06:17:51;151051.81;;;18.70;54.67
14885;BME280;7534;50.762;7.000;2022-07-06T06:20:17;150985.88;;;18.45;55.12
14885;BME280;7534;50.762;7.000;2022-07-06T06:22:55;151032.03;;;18.62;55.51
14885;BME280;7534;50.762;7.000;2022-07-06T06:25:38;151029.41;;;18.61;55.62
14885;BME280;7534;50.762;7.000;2022-07-06T06:28:06;151042.56;;;18.66;54.76
14885;BME280;7534;50.762;7.000;2022-07-06T06:30:33;151022.81;;;18.59;54.70
14885;BME280;7534;50.762;7.000;2022-07-06T06:33:15;150934.47;;;18.25;56.12
14885;BME280;7534;50.762;7.000;2022-07-06T06:35:47;150934.47;;;18.25;56.34
14885;BME280;7534;50.762;7.000;2022-07-06T06:38:14;150938.44;;;18.26;56.03
14885;BME280;7534;50.762;7.000;2022-07-06T06:40:41;150960.84;;;18.35;55.51
14885;BME280;7534;50.762;7.000;2022-07-06T06:43:07;150916.03;;;18.18;55.70
14885;BME280;7534;50.762;7.000;2022-07-06T06:45:33;150842.31;;;17.89;56.37
14885;BME280;7534;50.762;7.000;2022-07-06T06:47:59;150922.66;;;18.20;56.06
14885;BME280;7534;50.762;7.000;2022-07-06T06:50:24;150951.63;;;18.32;56.34
14885;BME280;7534;50.762;7.000;2022-07-06T06:52:51;150923.97;;;18.21;55.94
14885;BME280;7534;50.762;7.000;2022-07-06T06:55:17;150977.94;;;18.42;55.20
14885;BME280;7534;50.762;7.000;2022-07-06T06:57:44;151082.09;;;18.82;54.63
14885;BME280;7534;50.762;7.000;2022-07-06T07:00:10;151165.09;;;19.14;54.19
14885;BME280;7534;50.762;7.000;2022-07-06T07:02:36;151406.47;;;20.06;51.60
14885;BME280;7534;50.762;7.000;2022-07-06T07:05:03;151576.75;;;20.72;48.69
14885;BME280;7534;50.762;7.000;2022-07-06T07:07:29;151690.28;;;21.15;47.22
14885;BME280;7534;50.762;7.000;2022-07-06T07:09:55;151846.13;;;21.75;47.21
14885;BME280;7534;50.762;7.000;2022-07-06T07:12:20;151963.78;;;22.20;46.56
14885;BME280;7534;50.762;7.000;2022-07-06T07:14:46;151992.81;;;22.31;45.37
14885;BME280;7534;50.762;7.000;2022-07-06T07:17:13;151958.47;;;22.18;45.30
14885;BME280;7534;50.762;7.000;2022-07-06T07:19:39;152132.97;;;22.85;43.05
14885;BME280;7534;50.762;7.000;2022-07-06T07:22:05;152278.41;;;23.41;41.65
14885;BME280;7534;50.762;7.000;2022-07-06T07:24:31;152367.09;;;23.75;41.51
14885;BME280;7534;50.762;7.000;2022-07-06T07:26:57;152348.53;;;23.68;41.54
14885;BME280;7534;50.762;7.000;2022-07-06T07:29:23;152288.97;;;23.45;41.76
14885;BME280;7534;50.762;7.000;2022-07-06T07:31:49;152251.94;;;23.31;42.28
14885;BME280;7534;50.762;7.000;2022-07-06T07:34:15;152209.66;;;23.14;42.23
14885;BME280;7534;50.762;7.000;2022-07-06T07:36:40;152151.47;;;22.92;42.70
14885;BME280;7534;50.762;7.000;2022-07-06T07:39:06;152003.41;;;22.35;44.05
14885;BME280;7534;50.762;7.000;2022-07-06T07:41:32;151928.06;;;22.06;44.83
14885;BME280;7534;50.762;7.000;2022-07-06T07:43:57;151836.91;;;21.72;45.29
14885;BME280;7534;50.762;7.000;2022-07-06T07:46:23;151790.66;;;21.54;46.00
14885;BME280;7534;50.762;7.000;2022-07-06T07:48:49;151719.34;;;21.26;45.99
14885;BME280;7534;50.762;7.000;2022-07-06T07:51:15;151659.91;;;21.04;46.18
14885;BME280;7534;50.762;7.000;2022-07-06T07:53:40;151628.25;;;20.91;46.56
14885;BME280;7534;50.762;7.000;2022-07-06T07:56:06;151678.38;;;21.11;46.83
14885;BME280;7534;50.762;7.000;2022-07-06T07:58:32;151645.38;;;20.98;46.38
14885;BME280;7534;50.762;7.000;2022-07-06T08:00:58;151799.88;;;21.57;45.04
14885;BME280;7534;50.762;7.000;2022-07-06T08:03:25;151881.81;;;21.89;43.53
14885;BME280;7534;50.762;7.000;2022-07-06T08:05:50;151987.56;;;22.29;44.19
14885;BME280;7534;50.762;7.000;2022-07-06T08:08:16;152025.88;;;22.44;42.71
14885;BME280;7534;50.762;7.000;2022-07-06T08:10:42;151998.09;;;22.33;42.51
14885;BME280;7534;50.762;7.000;2022-07-06T08:13:07;151958.47;;;22.18;43.41
14885;BME280;7534;50.762;7.000;2022-07-06T08:15:37;151949.19;;;22.15;43.12
14885;BME280;7534;50.762;7.000;2022-07-06T08:18:04;151875.19;;;21.86;43.32
14885;BME280;7534;50.762;7.000;2022-07-06T08:20:29;151824.97;;;21.67;44.20
14885;BME280;7534;50.762;7.000;2022-07-06T08:22:56;151925.41;;;22.05;44.29
14885;BME280;7534;50.762;7.000;2022-07-06T08:25:21;152199.09;;;23.10;41.34
14885;BME280;7534;50.762;7.000;2022-07-06T08:27:47;152835.75;;;25.54;36.83
14885;BME280;7534;50.762;7.000;2022-07-06T08:30:13;153030.63;;;26.29;33.77
14885;BME280;7534;50.762;7.000;2022-07-06T08:32:41;153513.47;;;28.13;30.79
14885;BME280;7534;50.762;7.000;2022-07-06T08:35:09;154123.25;;;30.46;28.05
14885;BME280;7534;50.762;7.000;2022-07-06T08:37:35;154231.00;;;30.87;26.51
14885;BME280;7534;50.762;7.000;2022-07-06T08:40:02;153805.63;;;29.25;28.10
14885;BME280;7534;50.762;7.000;2022-07-06T08:42:33;153583.84;;;28.40;28.59
14885;BME280;7534;50.762;7.000;2022-07-06T08:45:03;153171.16;;;26.82;31.19
14885;BME280;7534;50.762;7.000;2022-07-06T08:47:30;152921.91;;;25.87;32.92
14885;BME280;7534;50.762;7.000;2022-07-06T08:49:56;152638.41;;;24.79;33.71
14885;BME280;7534;50.762;7.000;2022-07-06T08:52:23;152471.59;;;24.15;35.41
14885;BME280;7534;50.762;7.000;2022-07-06T08:54:50;152304.94;;;23.51;37.22
14885;BME280;7534;50.762;7.000;2022-07-06T08:57:17;152132.97;;;22.85;38.87
14885;BME280;7534;50.762;7.000;2022-07-06T08:59:43;152021.91;;;22.42;39.95
14885;BME280;7534;50.762;7.000;2022-07-06T09:02:13;151942.63;;;22.12;40.90
14885;BME280;7534;50.762;7.000;2022-07-06T09:04:41;151955.81;;;22.17;41.44
14885;BME280;7534;50.762;7.000;2022-07-06T09:07:07;151983.59;;;22.28;41.08
14885;BME280;7534;50.762;7.000;2022-07-06T09:09:35;151914.88;;;22.01;41.45
14885;BME280;7534;50.762;7.000;2022-07-06T09:12:02;151982.25;;;22.27;40.66
14885;BME280;7534;50.762;7.000;2022-07-06T09:14:29;152025.88;;;22.44;39.24
14885;BME280;7534;50.762;7.000;2022-07-06T09:17:06;152111.84;;;22.77;39.75
14885;BME280;7534;50.762;7.000;2022-07-06T09:19:34;152270.47;;;23.38;40.79
14885;BME280;7534;50.762;7.000;2022-07-06T09:22:04;152304.94;;;23.51;38.85
14885;BME280;7534;50.762;7.000;2022-07-06T09:24:31;152267.81;;;23.37;38.29
14885;BME280;7534;50.762;7.000;2022-07-06T09:27:00;152287.66;;;23.44;38.59
14885;BME280;7534;50.762;7.000;2022-07-06T09:29:32;152312.84;;;23.54;39.42
14885;BME280;7534;50.762;7.000;2022-07-06T09:32:03;152320.78;;;23.57;38.22
14885;BME280;7534;50.762;7.000;2022-07-06T09:34:44;152241.41;;;23.27;38.69
14885;BME280;7534;50.762;7.000;2022-07-06T09:37:12;152136.91;;;22.87;39.09
14885;BME280;7534;50.762;7.000;2022-07-06T09:39:38;152109.19;;;22.76;39.32
14885;BME280;7534;50.762;7.000;2022-07-06T09:42:06;152053.59;;;22.55;39.41
14885;BME280;7534;50.762;7.000;2022-07-06T09:44:41;152093.28;;;22.70;39.18
14885;BME280;7534;50.762;7.000;2022-07-06T09:47:10;152125.03;;;22.82;38.96
14885;BME280;7534;50.762;7.000;2022-07-06T09:49:38;152205.66;;;23.13;39.49
14885;BME280;7534;50.762;7.000;2022-07-06T09:52:10;152172.63;;;23.00;38.63
14885;BME280;7534;50.762;7.000;2022-07-06T09:54:38;152204.34;;;23.12;39.75
14885;BME280;7534;50.762;7.000;2022-07-06T09:57:05;152275.75;;;23.40;39.63
14885;BME280;7534;50.762;7.000;2022-07-06T09:59:33;152375.00;;;23.78;38.93
14885;BME280;7534;50.762;7.000;2022-07-06T10:02:06;152417.34;;;23.94;38.54
14885;BME280;7534;50.762;7.000;2022-07-06T10:04:33;152467.63;;;24.13;38.48
14885;BME280;7534;50.762;7.000;2022-07-06T10:06:59;152566.91;;;24.51;36.91
14885;BME280;7534;50.762;7.000;2022-07-06T10:09:28;152548.41;;;24.44;36.94
14885;BME280;7534;50.762;7.000;2022-07-06T10:12:02;152457.03;;;24.09;36.52
14885;BME280;7534;50.762;7.000;2022-07-06T10:14:31;152377.66;;;23.79;37.00
14885;BME280;7534;50.762;7.000;2022-07-06T10:17:00;152380.31;;;23.80;37.02
14885;BME280;7534;50.762;7.000;2022-07-06T10:19:29;152359.13;;;23.72;37.42
14885;BME280;7534;50.762;7.000;2022-07-06T10:22:00;152389.59;;;23.83;38.27
14885;BME280;7534;50.762;7.000;2022-07-06T10:24:28;152421.31;;;23.95;37.51
14885;BME280;7534;50.762;7.000;2022-07-06T10:26:55;152423.97;;;23.96;36.28
14885;BME280;7534;50.762;7.000;2022-07-06T10:29:23;152385.59;;;23.82;35.94
14885;BME280;7534;50.762;7.000;2022-07-06T10:31:49;152406.78;;;23.90;36.44
14885;BME280;7534;50.762;7.000;2022-07-06T10:34:19;152439.81;;;24.03;36.13
14885;BME280;7534;50.762;7.000;2022-07-06T10:36:50;152396.16;;;23.86;36.26
14885;BME280;7534;50.762;7.000;2022-07-06T10:39:37;152364.44;;;23.74;37.05
14885;BME280;7534;50.762;7.000;2022-07-06T10:42:46;152603.97;;;24.65;35.21
14885;BME280;7534;50.762;7.000;2022-07-06T10:50:55;152798.66;;;25.40;32.86
14885;BME280;7534;50.762;7.000;2022-07-06T10:53:24;152694.06;;;25.00;33.63
14885;BME280;7534;50.762;7.000;2022-07-06T10:55:54;152626.47;;;24.74;33.87
14885;BME280;7534;50.762;7.000;2022-07-06T10:58:50;152692.72;;;24.99;33.83
14885;BME280;7534;50.762;7.000;2022-07-06T11:01:21;152758.94;;;25.25;34.83
14885;BME280;7534;50.762;7.000;2022-07-06T11:03:48;152691.41;;;24.99;34.49
14885;BME280;7534;50.762;7.000;2022-07-06T11:06:20;152676.84;;;24.93;35.10
14885;BME280;7534;50.762;7.000;2022-07-06T11:11:37;152741.75;;;25.18;34.40
14885;BME280;7534;50.762;7.000;2022-07-06T11:14:14;152741.75;;;25.18;34.10
14885;BME280;7534;50.762;7.000;2022-07-06T11:19:21;152674.19;;;24.92;34.05
14885;BME280;7534;50.762;7.000;2022-07-06T11:21:55;152736.44;;;25.16;33.88
14885;BME280;7534;50.762;7.000;2022-07-06T11:24:29;152784.13;;;25.34;33.77
14885;BME280;7534;50.762;7.000;2022-07-06T11:26:58;152854.38;;;25.61;33.23
14885;BME280;7534;50.762;7.000;2022-07-06T11:29:26;152843.72;;;25.57;32.42
14885;BME280;7534;50.762;7.000;2022-07-06T11:31:59;152814.53;;;25.46;32.70
14885;BME280;7534;50.762;7.000;2022-07-06T11:34:31;152855.72;;;25.62;31.34
14885;BME280;7534;50.762;7.000;2022-07-06T11:37:00;152912.66;;;25.83;31.94
14885;BME280;7534;50.762;7.000;2022-07-06T11:39:31;152821.19;;;25.48;31.35
14885;BME280;7534;50.762;7.000;2022-07-06T11:41:59;152747.03;;;25.20;31.65
14885;BME280;7534;50.762;7.000;2022-07-06T11:44:26;152766.91;;;25.28;32.05
14885;BME280;7534;50.762;7.000;2022-07-06T11:46:53;152806.63;;;25.43;31.89
14885;BME280;7534;50.762;7.000;2022-07-06T11:49:22;152964.28;;;26.03;31.70
14885;BME280;7534;50.762;7.000;2022-07-06T11:51:48;152883.50;;;25.72;31.87
14885;BME280;7534;50.762;7.000;2022-07-06T11:54:18;152947.09;;;25.97;31.56
14885;BME280;7534;50.762;7.000;2022-07-06T11:56:52;153010.69;;;26.21;32.43
14885;BME280;7534;50.762;7.000;2022-07-06T11:59:33;152956.38;;;26.00;31.03
14885;BME280;7534;50.762;7.000;2022-07-06T12:04:27;153070.38;;;26.44;31.35
14885;BME280;7534;50.762;7.000;2022-07-06T12:06:54;153143.28;;;26.72;31.17
14885;BME280;7534;50.762;7.000;2022-07-06T12:09:21;153123.41;;;26.64;29.38
14885;BME280;7534;50.762;7.000;2022-07-06T12:11:47;153104.88;;;26.57;31.76
14885;BME280;7534;50.762;7.000;2022-07-06T12:14:20;153173.81;;;26.83;31.45
14885;BME280;7534;50.762;7.000;2022-07-06T12:16:48;153045.22;;;26.34;30.21
14885;BME280;7534;50.762;7.000;2022-07-06T12:19:15;152966.97;;;26.04;31.22
14885;BME280;7534;50.762;7.000;2022-07-06T12:21:50;153037.25;;;26.31;31.61
14885;BME280;7534;50.762;7.000;2022-07-06T12:24:27;152993.47;;;26.14;31.41
14885;BME280;7534;50.762;7.000;2022-07-06T12:26:54;152973.59;;;26.07;30.05
14885;BME280;7534;50.762;7.000;2022-07-06T12:29:21;152872.91;;;25.68;31.67
14885;BME280;7534;50.762;7.000;2022-07-06T12:31:50;152834.47;;;25.54;31.85
14885;BME280;7534;50.762;7.000;2022-07-06T12:34:24;152610.59;;;24.68;31.59
14885;BME280;7534;50.762;7.000;2022-07-06T12:36:53;152535.19;;;24.39;32.39
14885;BME280;7534;50.762;7.000;2022-07-06T12:39:29;152559.00;;;24.48;32.69
14885;BME280;7534;50.762;7.000;2022-07-06T12:42:01;152566.91;;;24.51;31.77
14885;BME280;7534;50.762;7.000;2022-07-06T12:44:26;152684.81;;;24.96;32.02
14885;BME280;7534;50.762;7.000;2022-07-06T12:47:07;152735.09;;;25.16;32.16
14885;BME280;7534;50.762;7.000;2022-07-06T12:49:37;152794.69;;;25.38;31.52
14885;BME280;7534;50.762;7.000;2022-07-06T12:54:40;152809.28;;;25.44;31.11
14885;BME280;7534;50.762;7.000;2022-07-06T12:57:21;152858.31;;;25.63;32.35
14885;BME280;7534;50.762;7.000;2022-07-06T13:02:24;153024.03;;;26.26;30.49
14885;BME280;7534;50.762;7.000;2022-07-06T13:05:02;153070.38;;;26.44;30.15
14885;BME280;7534;50.762;7.000;2022-07-06T13:07:31;153172.47;;;26.83;30.03
14885;BME280;7534;50.762;7.000;2022-07-06T13:09:58;153210.97;;;26.98;29.78
14885;BME280;7534;50.762;7.000;2022-07-06T13:12:25;153226.88;;;27.04;29.08
14885;BME280;7534;50.762;7.000;2022-07-06T13:14:51;153264.00;;;27.18;29.28
14885;BME280;7534;50.762;7.000;2022-07-06T13:17:17;153358.22;;;27.54;28.62
14885;BME280;7534;50.762;7.000;2022-07-06T13:19:43;153290.53;;;27.28;28.33
14885;BME280;7534;50.762;7.000;2022-07-06T13:22:11;153250.75;;;27.13;28.64